sensor_id;sensor_type;location;lat;lon;timestamp;P1;durP1;ratioP1;P2;durP2;ratioP2
18168;SDS011;49877;50.398;30.324;2022-08-11T00:01:43;7.33;;;6.07;;
18168;SDS011;49877;50.398;30.324;2022-08-11T00:04:11;6.50;;;5.77;;
18168;SDS011;49877;50.398;30.324;2022-08-11T00:06:40;9.63;;;5.23;;
18168;SDS011;49877;50.398;30.324;2022-08-11T00:09:08;8.73;;;5.87;;
18168;SDS011;49877;50.398;30.324;2022-08-11T00:11:37;7.47;;;5.50;;
18168;SDS011;49877;50.398;30.324;2022-08-11T00:14:13;7.57;;;5.43;;
18168;SDS011;49877;50.398;30.324;2022-08-11T00:16:42;7.63;;;5.67;;
18168;SDS011;49877;50.398;30.324;2022-08-11T00:19:19;8.47;;;6.27;;
18168;SDS011;49877;50.398;30.324;2022-08-11T00:21:48;6.73;;;5.90;;
18168;SDS011;49877;50.398;30.324;2022-08-11T00:24:15;10.10;;;6.83;;
18168;SDS011;49877;50.398;30.324;2022-08-11T00:26:46;8.80;;;6.27;;
18168;SDS011;49877;50.398;30.324;2022-08-11T00:29:15;10.33;;;6.67;;
18168;SDS011;49877;50.398;30.324;2022-08-11T00:31:43;8.53;;;6.73;;
18168;SDS011;49877;50.398;30.324;2022-08-11T00:34:14;7.53;;;6.00;;
18168;SDS011;49877;50.398;30.324;2022-08-11T00:36:45;6.83;;;6.00;;
18168;SDS011;49877;50.398;30.324;2022-08-11T00:39:15;8.27;;;6.50;;
18168;SDS011;49877;50.398;30.324;2022-08-11T00:41:46;11.77;;;5.83;;
18168;SDS011;49877;50.398;30.324;2022-08-11T00:44:35;9.13;;;6.07;;
18168;SDS011;49877;50.398;30.324;2022-08-11T00:47:11;9.67;;;6.93;;
18168;SDS011;49877;50.398;30.324;2022-08-11T00:49:48;7.23;;;6.20;;
18168;SDS011;49877;50.398;30.324;2022-08-11T00:52:28;8.50;;;6.30;;
18168;SDS011;49877;50.398;30.324;2022-08-11T00:58:28;7.13;;;5.93;;
18168;SDS011;49877;50.398;30.324;2022-08-11T01:01:33;10.97;;;6.50;;
18168;SDS011;49877;50.398;30.324;2022-08-11T01:04:19;9.47;;;6.60;;
18168;SDS011;49877;50.398;30.324;2022-08-11T01:07:14;8.20;;;5.80;;
18168;SDS011;49877;50.398;30.324;2022-08-11T01:10:00;10.03;;;6.30;;
18168;SDS011;49877;50.398;30.324;2022-08-11T01:12:43;8.20;;;6.53;;
18168;SDS011;49877;50.398;30.324;2022-08-11T01:24:41;9.40;;;7.20;;
18168;SDS011;49877;50.398;30.324;2022-08-11T01:30:40;10.80;;;6.97;;
18168;SDS011;49877;50.398;30.324;2022-08-11T01:36:44;9.57;;;7.20;;
18168;SDS011;49877;50.398;30.324;2022-08-11T01:39:39;9.03;;;7.50;;
18168;SDS011;49877;50.398;30.324;2022-08-11T01:42:47;8.10;;;6.60;;
18168;SDS011;49877;50.398;30.324;2022-08-11T01:45:57;11.33;;;7.30;;
18168;SDS011;49877;50.398;30.324;2022-08-11T01:48:30;10.87;;;7.03;;
18168;SDS011;49877;50.398;30.324;2022-08-11T01:51:07;9.47;;;7.00;;
18168;SDS011;49877;50.398;30.324;2022-08-11T01:53:50;9.90;;;6.87;;
18168;SDS011;49877;50.398;30.324;2022-08-11T01:56:28;10.23;;;7.33;;
18168;SDS011;49877;50.398;30.324;2022-08-11T01:59:16;7.83;;;6.33;;
18168;SDS011;49877;50.398;30.324;2022-08-11T02:02:08;8.67;;;6.70;;
18168;SDS011;49877;50.398;30.324;2022-08-11T02:05:09;9.20;;;6.33;;
18168;SDS011;49877;50.398;30.324;2022-08-11T02:07:48;7.37;;;6.00;;
18168;SDS011;49877;50.398;30.324;2022-08-11T02:10:24;10.27;;;6.37;;
18168;SDS011;49877;50.398;30.324;2022-08-11T02:13:14;8.50;;;6.03;;
18168;SDS011;49877;50.398;30.324;2022-08-11T02:15:50;7.57;;;6.17;;
18168;SDS011;49877;50.398;30.324;2022-08-11T02:18:22;9.00;;;6.33;;
18168;SDS011;49877;50.398;30.324;2022-08-11T02:21:14;7.57;;;6.20;;
18168;SDS011;49877;50.398;30.324;2022-08-11T02:24:09;8.10;;;6.47;;
18168;SDS011;49877;50.398;30.324;2022-08-11T02:26:43;7.90;;;6.37;;
18168;SDS011;49877;50.398;30.324;2022-08-11T02:29:14;6.73;;;5.83;;
18168;SDS011;49877;50.398;30.324;2022-08-11T02:31:49;9.27;;;6.27;;
18168;SDS011;49877;50.398;30.324;2022-08-11T02:34:44;10.27;;;6.53;;
18168;SDS011;49877;50.398;30.324;2022-08-11T02:37:21;11.80;;;6.63;;
18168;SDS011;49877;50.398;30.324;2022-08-11T02:39:59;8.17;;;5.80;;
18168;SDS011;49877;50.398;30.324;2022-08-11T02:42:39;8.30;;;5.47;;
18168;SDS011;49877;50.398;30.324;2022-08-11T02:45:17;9.67;;;6.77;;
18168;SDS011;49877;50.398;30.324;2022-08-11T02:48:02;7.87;;;6.50;;
18168;SDS011;49877;50.398;30.324;2022-08-11T02:50:51;8.47;;;5.97;;
18168;SDS011;49877;50.398;30.324;2022-08-11T02:53:29;10.40;;;6.40;;
18168;SDS011;49877;50.398;30.324;2022-08-11T02:56:05;6.80;;;6.10;;
18168;SDS011;49877;50.398;30.324;2022-08-11T02:58:40;10.73;;;5.97;;
18168;SDS011;49877;50.398;30.324;2022-08-11T03:01:38;10.53;;;6.37;;
18168;SDS011;49877;50.398;30.324;2022-08-11T03:04:10;13.23;;;6.77;;
18168;SDS011;49877;50.398;30.324;2022-08-11T03:06:45;7.43;;;5.70;;
18168;SDS011;49877;50.398;30.324;2022-08-11T03:09:18;11.30;;;5.60;;
18168;SDS011;49877;50.398;30.324;2022-08-11T03:11:51;8.67;;;5.80;;
18168;SDS011;49877;50.398;30.324;2022-08-11T03:14:45;8.83;;;6.00;;
18168;SDS011;49877;50.398;30.324;2022-08-11T03:17:36;8.07;;;5.83;;
18168;SDS011;49877;50.398;30.324;2022-08-11T03:20:13;9.23;;;6.07;;
18168;SDS011;49877;50.398;30.324;2022-08-11T03:22:56;7.93;;;5.50;;
18168;SDS011;49877;50.398;30.324;2022-08-11T03:25:29;9.60;;;5.90;;
18168;SDS011;49877;50.398;30.324;2022-08-11T03:28:05;10.23;;;6.83;;
18168;SDS011;49877;50.398;30.324;2022-08-11T03:30:45;9.00;;;6.57;;
18168;SDS011;49877;50.398;30.324;2022-08-11T03:33:18;15.17;;;6.57;;
18168;SDS011;49877;50.398;30.324;2022-08-11T03:36:09;6.47;;;5.77;;
18168;SDS011;49877;50.398;30.324;2022-08-11T03:41:31;8.03;;;5.47;;
18168;SDS011;49877;50.398;30.324;2022-08-11T03:44:18;6.87;;;5.13;;
18168;SDS011;49877;50.398;30.324;2022-08-11T03:46:58;7.20;;;5.50;;
18168;SDS011;49877;50.398;30.324;2022-08-11T03:49:44;9.10;;;5.30;;
18168;SDS011;49877;50.398;30.324;2022-08-11T03:52:27;6.10;;;5.30;;
18168;SDS011;49877;50.398;30.324;2022-08-11T03:55:09;6.63;;;5.30;;
18168;SDS011;49877;50.398;30.324;2022-08-11T03:57:47;8.53;;;5.50;;
18168;SDS011;49877;50.398;30.324;2022-08-11T04:00:49;8.60;;;5.57;;
18168;SDS011;49877;50.398;30.324;2022-08-11T04:03:47;8.00;;;5.80;;
18168;SDS011;49877;50.398;30.324;2022-08-11T04:13:01;7.27;;;5.60;;
18168;SDS011;49877;50.398;30.324;2022-08-11T04:16:05;9.87;;;5.87;;
18168;SDS011;49877;50.398;30.324;2022-08-11T04:21:53;8.00;;;5.77;;
18168;SDS011;49877;50.398;30.324;2022-08-11T04:27:44;8.33;;;5.93;;
18168;SDS011;49877;50.398;30.324;2022-08-11T04:30:39;9.07;;;6.90;;
18168;SDS011;49877;50.398;30.324;2022-08-11T04:33:29;9.53;;;6.10;;
18168;SDS011;49877;50.398;30.324;2022-08-11T04:36:09;9.40;;;5.60;;
18168;SDS011;49877;50.398;30.324;2022-08-11T04:39:09;8.13;;;5.70;;
18168;SDS011;49877;50.398;30.324;2022-08-11T04:41:57;8.40;;;5.60;;
18168;SDS011;49877;50.398;30.324;2022-08-11T04:48:18;8.87;;;6.10;;
18168;SDS011;49877;50.398;30.324;2022-08-11T04:51:21;6.87;;;5.90;;
18168;SDS011;49877;50.398;30.324;2022-08-11T04:54:25;8.23;;;7.03;;
18168;SDS011;49877;50.398;30.324;2022-08-11T04:57:31;6.57;;;5.83;;
18168;SDS011;49877;50.398;30.324;2022-08-11T05:00:22;8.10;;;5.67;;
18168;SDS011;49877;50.398;30.324;2022-08-11T05:06:17;8.40;;;6.27;;
18168;SDS011;49877;50.398;30.324;2022-08-11T05:09:20;8.30;;;6.10;;
18168;SDS011;49877;50.398;30.324;2022-08-11T05:15:01;8.97;;;5.30;;
18168;SDS011;49877;50.398;30.324;2022-08-11T05:17:52;9.60;;;6.30;;
18168;SDS011;49877;50.398;30.324;2022-08-11T05:20:44;5.67;;;5.07;;
18168;SDS011;49877;50.398;30.324;2022-08-11T05:23:31;7.93;;;6.10;;
18168;SDS011;49877;50.398;30.324;2022-08-11T05:26:20;12.00;;;7.10;;
18168;SDS011;49877;50.398;30.324;2022-08-11T05:32:10;9.10;;;7.37;;
18168;SDS011;49877;50.398;30.324;2022-08-11T05:34:58;9.15;;;7.30;;
18168;SDS011;49877;50.398;30.324;2022-08-11T05:37:32;10.27;;;7.80;;
18168;SDS011;49877;50.398;30.324;2022-08-11T05:40:26;9.03;;;7.30;;
18168;SDS011;49877;50.398;30.324;2022-08-11T05:43:13;9.10;;;7.30;;
18168;SDS011;49877;50.398;30.324;2022-08-11T05:45:59;11.83;;;7.20;;
18168;SDS011;49877;50.398;30.324;2022-08-11T05:48:45;8.33;;;7.30;;
18168;SDS011;49877;50.398;30.324;2022-08-11T05:51:32;9.17;;;7.37;;
18168;SDS011;49877;50.398;30.324;2022-08-11T05:54:17;10.33;;;7.33;;
18168;SDS011;49877;50.398;30.324;2022-08-11T05:57:03;8.23;;;6.90;;
18168;SDS011;49877;50.398;30.324;2022-08-11T05:59:32;11.57;;;8.93;;
18168;SDS011;49877;50.398;30.324;2022-08-11T06:02:00;11.47;;;9.17;;
18168;SDS011;49877;50.398;30.324;2022-08-11T06:04:28;11.83;;;8.40;;
18168;SDS011;49877;50.398;30.324;2022-08-11T06:06:56;10.80;;;8.00;;
18168;SDS011;49877;50.398;30.324;2022-08-11T06:09:27;9.30;;;7.03;;
18168;SDS011;49877;50.398;30.324;2022-08-11T06:11:58;12.70;;;9.27;;
18168;SDS011;49877;50.398;30.324;2022-08-11T06:14:27;8.53;;;7.47;;
18168;SDS011;49877;50.398;30.324;2022-08-11T06:16:57;7.77;;;6.97;;
18168;SDS011;49877;50.398;30.324;2022-08-11T06:19:32;9.03;;;7.03;;
18168;SDS011;49877;50.398;30.324;2022-08-11T06:22:01;11.10;;;7.93;;
18168;SDS011;49877;50.398;30.324;2022-08-11T06:24:29;10.10;;;7.40;;
18168;SDS011;49877;50.398;30.324;2022-08-11T06:26:57;10.83;;;8.53;;
18168;SDS011;49877;50.398;30.324;2022-08-11T06:29:25;11.33;;;7.50;;
18168;SDS011;49877;50.398;30.324;2022-08-11T06:31:54;10.80;;;8.23;;
18168;SDS011;49877;50.398;30.324;2022-08-11T06:34:27;9.33;;;7.60;;
18168;SDS011;49877;50.398;30.324;2022-08-11T06:37:04;12.80;;;7.70;;
18168;SDS011;49877;50.398;30.324;2022-08-11T06:39:44;13.23;;;8.30;;
18168;SDS011;49877;50.398;30.324;2022-08-11T06:42:23;9.40;;;7.97;;
18168;SDS011;49877;50.398;30.324;2022-08-11T06:45:00;10.20;;;7.73;;
18168;SDS011;49877;50.398;30.324;2022-08-11T06:47:34;10.37;;;8.33;;
18168;SDS011;49877;50.398;30.324;2022-08-11T06:50:06;13.90;;;9.93;;
18168;SDS011;49877;50.398;30.324;2022-08-11T06:52:51;15.87;;;11.33;;
18168;SDS011;49877;50.398;30.324;2022-08-11T06:55:20;9.90;;;8.13;;
18168;SDS011;49877;50.398;30.324;2022-08-11T06:58:03;9.93;;;7.87;;
18168;SDS011;49877;50.398;30.324;2022-08-11T07:00:48;10.57;;;8.60;;
18168;SDS011;49877;50.398;30.324;2022-08-11T07:03:22;10.13;;;7.87;;
18168;SDS011;49877;50.398;30.324;2022-08-11T07:05:54;11.17;;;7.37;;
18168;SDS011;49877;50.398;30.324;2022-08-11T07:08:40;8.83;;;7.17;;
18168;SDS011;49877;50.398;30.324;2022-08-11T07:11:54;11.47;;;8.40;;
18168;SDS011;49877;50.398;30.324;2022-08-11T07:15:01;9.87;;;7.77;;
18168;SDS011;49877;50.398;30.324;2022-08-11T07:17:49;9.33;;;7.13;;
18168;SDS011;49877;50.398;30.324;2022-08-11T07:20:38;13.03;;;8.63;;
18168;SDS011;49877;50.398;30.324;2022-08-11T07:23:23;13.50;;;10.43;;
18168;SDS011;49877;50.398;30.324;2022-08-11T07:26:08;11.90;;;7.53;;
18168;SDS011;49877;50.398;30.324;2022-08-11T07:28:54;9.90;;;6.67;;
18168;SDS011;49877;50.398;30.324;2022-08-11T07:31:24;8.70;;;6.93;;
18168;SDS011;49877;50.398;30.324;2022-08-11T07:33:58;8.77;;;7.40;;
18168;SDS011;49877;50.398;30.324;2022-08-11T07:36:32;11.47;;;7.60;;
18168;SDS011;49877;50.398;30.324;2022-08-11T07:39:02;9.77;;;7.50;;
18168;SDS011;49877;50.398;30.324;2022-08-11T07:41:29;10.10;;;7.97;;
18168;SDS011;49877;50.398;30.324;2022-08-11T07:43:59;10.97;;;7.73;;
18168;SDS011;49877;50.398;30.324;2022-08-11T07:46:34;12.03;;;7.57;;
18168;SDS011;49877;50.398;30.324;2022-08-11T07:49:21;11.40;;;8.03;;
18168;SDS011;49877;50.398;30.324;2022-08-11T07:52:08;8.97;;;7.60;;
18168;SDS011;49877;50.398;30.324;2022-08-11T07:54:58;9.37;;;7.03;;
18168;SDS011;49877;50.398;30.324;2022-08-11T07:57:26;9.73;;;7.00;;
18168;SDS011;49877;50.398;30.324;2022-08-11T08:00:12;8.33;;;7.10;;
18168;SDS011;49877;50.398;30.324;2022-08-11T08:02:57;8.67;;;6.70;;
18168;SDS011;49877;50.398;30.324;2022-08-11T08:05:43;9.40;;;7.00;;
18168;SDS011;49877;50.398;30.324;2022-08-11T08:08:30;9.47;;;7.00;;
18168;SDS011;49877;50.398;30.324;2022-08-11T08:11:15;12.47;;;7.27;;
18168;SDS011;49877;50.398;30.324;2022-08-11T08:14:02;8.73;;;7.03;;
18168;SDS011;49877;50.398;30.324;2022-08-11T08:16:46;8.47;;;7.00;;
18168;SDS011;49877;50.398;30.324;2022-08-11T08:19:31;8.47;;;6.70;;
18168;SDS011;49877;50.398;30.324;2022-08-11T08:21:59;8.40;;;7.50;;
18168;SDS011;49877;50.398;30.324;2022-08-11T08:24:28;8.90;;;7.47;;
18168;SDS011;49877;50.398;30.324;2022-08-11T08:26:56;10.00;;;7.57;;
18168;SDS011;49877;50.398;30.324;2022-08-11T08:29:24;8.70;;;7.40;;
18168;SDS011;49877;50.398;30.324;2022-08-11T08:32:11;9.50;;;6.67;;
18168;SDS011;49877;50.398;30.324;2022-08-11T08:34:40;7.63;;;6.20;;
18168;SDS011;49877;50.398;30.324;2022-08-11T08:37:08;7.13;;;6.43;;
18168;SDS011;49877;50.398;30.324;2022-08-11T08:39:36;7.30;;;6.40;;
18168;SDS011;49877;50.398;30.324;2022-08-11T08:42:05;7.13;;;5.87;;
18168;SDS011;49877;50.398;30.324;2022-08-11T08:44:38;7.83;;;6.23;;
18168;SDS011;49877;50.398;30.324;2022-08-11T08:47:09;8.63;;;6.30;;
18168;SDS011;49877;50.398;30.324;2022-08-11T08:49:43;7.97;;;6.67;;
18168;SDS011;49877;50.398;30.324;2022-08-11T08:52:13;7.47;;;6.47;;
18168;SDS011;49877;50.398;30.324;2022-08-11T08:54:44;8.47;;;6.80;;
18168;SDS011;49877;50.398;30.324;2022-08-11T08:57:18;9.83;;;6.43;;
18168;SDS011;49877;50.398;30.324;2022-08-11T08:59:47;8.23;;;6.00;;
18168;SDS011;49877;50.398;30.324;2022-08-11T09:02:16;10.27;;;6.33;;
18168;SDS011;49877;50.398;30.324;2022-08-11T09:04:44;8.23;;;5.93;;
18168;SDS011;49877;50.398;30.324;2022-08-11T09:07:13;8.50;;;6.60;;
18168;SDS011;49877;50.398;30.324;2022-08-11T09:09:44;6.67;;;5.73;;
18168;SDS011;49877;50.398;30.324;2022-08-11T09:12:15;6.13;;;5.50;;
18168;SDS011;49877;50.398;30.324;2022-08-11T09:14:46;6.03;;;5.40;;
18168;SDS011;49877;50.398;30.324;2022-08-11T09:17:29;7.33;;;5.60;;
18168;SDS011;49877;50.398;30.324;2022-08-11T09:19:59;7.33;;;5.60;;
18168;SDS011;49877;50.398;30.324;2022-08-11T09:22:29;7.17;;;5.53;;
18168;SDS011;49877;50.398;30.324;2022-08-11T09:25:18;7.13;;;4.47;;
18168;SDS011;49877;50.398;30.324;2022-08-11T09:28:04;4.80;;;4.40;;
18168;SDS011;49877;50.398;30.324;2022-08-11T09:30:35;5.50;;;4.23;;
18168;SDS011;49877;50.398;30.324;2022-08-11T09:33:03;4.90;;;4.27;;
18168;SDS011;49877;50.398;30.324;2022-08-11T09:35:34;6.90;;;4.90;;
18168;SDS011;49877;50.398;30.324;2022-08-11T09:38:03;4.30;;;3.70;;
18168;SDS011;49877;50.398;30.324;2022-08-11T09:40:50;8.07;;;3.97;;
18168;SDS011;49877;50.398;30.324;2022-08-11T09:43:18;7.17;;;5.07;;
18168;SDS011;49877;50.398;30.324;2022-08-11T09:46:14;5.67;;;4.50;;
18168;SDS011;49877;50.398;30.324;2022-08-11T09:48:43;5.47;;;4.40;;
18168;SDS011;49877;50.398;30.324;2022-08-11T09:51:12;6.13;;;4.30;;
18168;SDS011;49877;50.398;30.324;2022-08-11T09:53:41;5.23;;;4.73;;
18168;SDS011;49877;50.398;30.324;2022-08-11T09:56:12;7.47;;;5.70;;
18168;SDS011;49877;50.398;30.324;2022-08-11T09:59:00;7.53;;;5.87;;
18168;SDS011;49877;50.398;30.324;2022-08-11T10:01:29;8.03;;;5.43;;
18168;SDS011;49877;50.398;30.324;2022-08-11T10:03:58;6.70;;;5.57;;
18168;SDS011;49877;50.398;30.324;2022-08-11T10:06:28;6.33;;;5.73;;
18168;SDS011;49877;50.398;30.324;2022-08-11T10:09:15;6.80;;;5.30;;
18168;SDS011;49877;50.398;30.324;2022-08-11T10:11:46;5.83;;;5.20;;
18168;SDS011;49877;50.398;30.324;2022-08-11T10:14:14;6.53;;;5.27;;
18168;SDS011;49877;50.398;30.324;2022-08-11T10:17:01;6.80;;;5.60;;
18168;SDS011;49877;50.398;30.324;2022-08-11T10:19:32;6.87;;;5.20;;
18168;SDS011;49877;50.398;30.324;2022-08-11T10:22:00;5.90;;;5.07;;
18168;SDS011;49877;50.398;30.324;2022-08-11T10:24:46;7.30;;;5.33;;
18168;SDS011;49877;50.398;30.324;2022-08-11T10:27:32;7.83;;;5.47;;
18168;SDS011;49877;50.398;30.324;2022-08-11T10:30:00;8.73;;;4.83;;
18168;SDS011;49877;50.398;30.324;2022-08-11T10:32:45;11.00;;;5.73;;
18168;SDS011;49877;50.398;30.324;2022-08-11T10:35:32;7.90;;;5.40;;
18168;SDS011;49877;50.398;30.324;2022-08-11T10:37:59;7.37;;;4.80;;
18168;SDS011;49877;50.398;30.324;2022-08-11T10:40:26;6.87;;;5.33;;
18168;SDS011;49877;50.398;30.324;2022-08-11T10:42:55;6.80;;;5.50;;
18168;SDS011;49877;50.398;30.324;2022-08-11T10:45:37;6.17;;;5.57;;
18168;SDS011;49877;50.398;30.324;2022-08-11T10:48:24;6.13;;;5.40;;
18168;SDS011;49877;50.398;30.324;2022-08-11T10:50:53;6.10;;;5.50;;
18168;SDS011;49877;50.398;30.324;2022-08-11T10:53:42;6.77;;;5.60;;
18168;SDS011;49877;50.398;30.324;2022-08-11T10:56:28;9.53;;;6.00;;
18168;SDS011;49877;50.398;30.324;2022-08-11T10:59:17;6.67;;;5.97;;
18168;SDS011;49877;50.398;30.324;2022-08-11T11:01:44;6.20;;;5.37;;
18168;SDS011;49877;50.398;30.324;2022-08-11T11:04:12;6.23;;;5.17;;
18168;SDS011;49877;50.398;30.324;2022-08-11T11:06:49;6.67;;;6.07;;
18168;SDS011;49877;50.398;30.324;2022-08-11T11:09:21;7.93;;;5.80;;
18168;SDS011;49877;50.398;30.324;2022-08-11T11:11:55;7.07;;;5.73;;
18168;SDS011;49877;50.398;30.324;2022-08-11T11:14:43;6.13;;;5.53;;
18168;SDS011;49877;50.398;30.324;2022-08-11T11:17:34;6.50;;;5.43;;
18168;SDS011;49877;50.398;30.324;2022-08-11T11:20:19;8.47;;;5.87;;
18168;SDS011;49877;50.398;30.324;2022-08-11T11:22:50;7.43;;;5.93;;
18168;SDS011;49877;50.398;30.324;2022-08-11T11:25:29;6.50;;;5.90;;
18168;SDS011;49877;50.398;30.324;2022-08-11T11:28:33;7.23;;;6.47;;
18168;SDS011;49877;50.398;30.324;2022-08-11T11:31:17;7.20;;;6.50;;
18168;SDS011;49877;50.398;30.324;2022-08-11T11:33:57;6.57;;;5.87;;
18168;SDS011;49877;50.398;30.324;2022-08-11T11:36:39;7.17;;;6.37;;
18168;SDS011;49877;50.398;30.324;2022-08-11T11:39:11;8.23;;;6.00;;
18168;SDS011;49877;50.398;30.324;2022-08-11T11:41:38;9.47;;;6.63;;
18168;SDS011;49877;50.398;30.324;2022-08-11T11:44:07;8.27;;;6.40;;
18168;SDS011;49877;50.398;30.324;2022-08-11T11:46:39;6.80;;;6.10;;
18168;SDS011;49877;50.398;30.324;2022-08-11T11:49:09;7.17;;;6.10;;
18168;SDS011;49877;50.398;30.324;2022-08-11T11:51:37;8.60;;;6.53;;
18168;SDS011;49877;50.398;30.324;2022-08-11T11:54:04;9.03;;;6.53;;
18168;SDS011;49877;50.398;30.324;2022-08-11T11:56:34;7.77;;;6.27;;
18168;SDS011;49877;50.398;30.324;2022-08-11T11:59:02;6.63;;;6.00;;
18168;SDS011;49877;50.398;30.324;2022-08-11T12:01:49;7.00;;;6.10;;
18168;SDS011;49877;50.398;30.324;2022-08-11T12:04:16;8.37;;;6.70;;
18168;SDS011;49877;50.398;30.324;2022-08-11T12:06:46;6.57;;;5.53;;
18168;SDS011;49877;50.398;30.324;2022-08-11T12:09:14;7.33;;;6.30;;
18168;SDS011;49877;50.398;30.324;2022-08-11T12:11:42;7.50;;;6.60;;
18168;SDS011;49877;50.398;30.324;2022-08-11T12:14:27;7.57;;;6.47;;
18168;SDS011;49877;50.398;30.324;2022-08-11T12:16:56;8.97;;;6.27;;
18168;SDS011;49877;50.398;30.324;2022-08-11T12:19:25;7.73;;;6.03;;
18168;SDS011;49877;50.398;30.324;2022-08-11T12:21:54;7.43;;;6.57;;
18168;SDS011;49877;50.398;30.324;2022-08-11T12:24:39;11.37;;;7.43;;
18168;SDS011;49877;50.398;30.324;2022-08-11T12:27:24;8.43;;;7.07;;
18168;SDS011;49877;50.398;30.324;2022-08-11T12:29:53;8.77;;;7.30;;
18168;SDS011;49877;50.398;30.324;2022-08-11T12:32:23;9.30;;;7.37;;
18168;SDS011;49877;50.398;30.324;2022-08-11T12:34:54;7.37;;;6.30;;
18168;SDS011;49877;50.398;30.324;2022-08-11T12:37:22;8.43;;;6.80;;
18168;SDS011;49877;50.398;30.324;2022-08-11T12:39:56;8.00;;;7.20;;
18168;SDS011;49877;50.398;30.324;2022-08-11T12:42:43;8.20;;;6.60;;
18168;SDS011;49877;50.398;30.324;2022-08-11T12:45:29;8.43;;;6.67;;
18168;SDS011;49877;50.398;30.324;2022-08-11T12:48:03;9.53;;;6.70;;
18168;SDS011;49877;50.398;30.324;2022-08-11T12:50:50;8.70;;;6.67;;
18168;SDS011;49877;50.398;30.324;2022-08-11T12:53:40;8.53;;;7.17;;
18168;SDS011;49877;50.398;30.324;2022-08-11T12:56:11;7.70;;;6.90;;
18168;SDS011;49877;50.398;30.324;2022-08-11T12:58:56;8.00;;;7.20;;
18168;SDS011;49877;50.398;30.324;2022-08-11T13:01:41;8.83;;;6.67;;
18168;SDS011;49877;50.398;30.324;2022-08-11T13:04:28;9.33;;;6.97;;
18168;SDS011;49877;50.398;30.324;2022-08-11T13:07:13;8.63;;;7.40;;
18168;SDS011;49877;50.398;30.324;2022-08-11T13:09:42;11.53;;;7.63;;
18168;SDS011;49877;50.398;30.324;2022-08-11T13:12:11;9.27;;;7.00;;
18168;SDS011;49877;50.398;30.324;2022-08-11T13:14:56;8.83;;;7.93;;
18168;SDS011;49877;50.398;30.324;2022-08-11T13:17:25;7.93;;;7.17;;
18168;SDS011;49877;50.398;30.324;2022-08-11T13:19:56;8.20;;;7.23;;
18168;SDS011;49877;50.398;30.324;2022-08-11T13:22:24;8.00;;;7.20;;
18168;SDS011;49877;50.398;30.324;2022-08-11T13:24:52;8.57;;;6.37;;
18168;SDS011;49877;50.398;30.324;2022-08-11T13:27:20;8.03;;;7.23;;
18168;SDS011;49877;50.398;30.324;2022-08-11T13:29:49;7.70;;;6.90;;
18168;SDS011;49877;50.398;30.324;2022-08-11T13:32:37;8.23;;;6.97;;
18168;SDS011;49877;50.398;30.324;2022-08-11T13:35:06;8.50;;;7.20;;
18168;SDS011;49877;50.398;30.324;2022-08-11T13:37:34;8.13;;;7.20;;
18168;SDS011;49877;50.398;30.324;2022-08-11T13:40:02;8.83;;;6.70;;
18168;SDS011;49877;50.398;30.324;2022-08-11T13:42:30;8.57;;;7.67;;
18168;SDS011;49877;50.398;30.324;2022-08-11T13:44:57;10.50;;;7.57;;
18168;SDS011;49877;50.398;30.324;2022-08-11T13:47:24;9.17;;;7.57;;
18168;SDS011;49877;50.398;30.324;2022-08-11T13:49:52;8.43;;;7.03;;
18168;SDS011;49877;50.398;30.324;2022-08-11T13:52:22;8.83;;;7.60;;
18168;SDS011;49877;50.398;30.324;2022-08-11T13:54:51;8.93;;;8.00;;
18168;SDS011;49877;50.398;30.324;2022-08-11T13:57:18;9.87;;;8.30;;
18168;SDS011;49877;50.398;30.324;2022-08-11T13:59:51;12.43;;;7.57;;
18168;SDS011;49877;50.398;30.324;2022-08-11T14:02:20;10.33;;;8.33;;
18168;SDS011;49877;50.398;30.324;2022-08-11T14:04:54;10.43;;;8.30;;
18168;SDS011;49877;50.398;30.324;2022-08-11T14:07:24;9.30;;;8.23;;
18168;SDS011;49877;50.398;30.324;2022-08-11T14:09:58;10.97;;;7.90;;
18168;SDS011;49877;50.398;30.324;2022-08-11T14:12:26;8.90;;;8.00;;
18168;SDS011;49877;50.398;30.324;2022-08-11T14:15:13;11.17;;;8.77;;
18168;SDS011;49877;50.398;30.324;2022-08-11T14:17:44;9.30;;;8.17;;
18168;SDS011;49877;50.398;30.324;2022-08-11T14:20:14;11.97;;;7.80;;
18168;SDS011;49877;50.398;30.324;2022-08-11T14:22:45;9.00;;;8.10;;
18168;SDS011;49877;50.398;30.324;2022-08-11T14:25:12;12.20;;;9.93;;
18168;SDS011;49877;50.398;30.324;2022-08-11T14:27:40;11.67;;;9.20;;
18168;SDS011;49877;50.398;30.324;2022-08-11T14:30:10;9.60;;;8.70;;
18168;SDS011;49877;50.398;30.324;2022-08-11T14:32:58;9.47;;;8.57;;
18168;SDS011;49877;50.398;30.324;2022-08-11T14:35:26;10.53;;;8.63;;
18168;SDS011;49877;50.398;30.324;2022-08-11T14:37:55;11.80;;;8.97;;
18168;SDS011;49877;50.398;30.324;2022-08-11T14:40:24;12.07;;;9.57;;
18168;SDS011;49877;50.398;30.324;2022-08-11T14:43:09;13.93;;;9.20;;
18168;SDS011;49877;50.398;30.324;2022-08-11T14:45:54;12.50;;;9.27;;
18168;SDS011;49877;50.398;30.324;2022-08-11T14:48:39;10.10;;;8.97;;
18168;SDS011;49877;50.398;30.324;2022-08-11T14:51:07;11.23;;;9.40;;
18168;SDS011;49877;50.398;30.324;2022-08-11T14:53:38;13.23;;;9.07;;
18168;SDS011;49877;50.398;30.324;2022-08-11T14:56:06;10.30;;;9.23;;
18168;SDS011;49877;50.398;30.324;2022-08-11T14:58:50;10.90;;;9.60;;
18168;SDS011;49877;50.398;30.324;2022-08-11T15:01:17;12.37;;;9.37;;
18168;SDS011;49877;50.398;30.324;2022-08-11T15:04:14;11.73;;;8.93;;
18168;SDS011;49877;50.398;30.324;2022-08-11T15:06:41;11.83;;;8.63;;
18168;SDS011;49877;50.398;30.324;2022-08-11T15:09:09;10.13;;;8.90;;
18168;SDS011;49877;50.398;30.324;2022-08-11T15:11:36;12.70;;;10.43;;
18168;SDS011;49877;50.398;30.324;2022-08-11T15:14:21;10.20;;;9.20;;
18168;SDS011;49877;50.398;30.324;2022-08-11T15:17:02;11.03;;;9.30;;
18168;SDS011;49877;50.398;30.324;2022-08-11T15:19:35;12.83;;;9.63;;
18168;SDS011;49877;50.398;30.324;2022-08-11T15:22:24;10.37;;;8.73;;
18168;SDS011;49877;50.398;30.324;2022-08-11T15:25:10;9.60;;;8.70;;
18168;SDS011;49877;50.398;30.324;2022-08-11T15:27:38;12.13;;;8.90;;
18168;SDS011;49877;50.398;30.324;2022-08-11T15:30:20;11.00;;;8.90;;
18168;SDS011;49877;50.398;30.324;2022-08-11T15:33:05;12.77;;;9.83;;
18168;SDS011;49877;50.398;30.324;2022-08-11T15:35:52;12.23;;;9.17;;
18168;SDS011;49877;50.398;30.324;2022-08-11T15:38:41;12.20;;;9.10;;
18168;SDS011;49877;50.398;30.324;2022-08-11T15:41:14;9.57;;;8.57;;
18168;SDS011;49877;50.398;30.324;2022-08-11T15:44:00;12.03;;;9.17;;
18168;SDS011;49877;50.398;30.324;2022-08-11T15:46:49;10.77;;;9.40;;
18168;SDS011;49877;50.398;30.324;2022-08-11T15:49:19;14.13;;;11.30;;
18168;SDS011;49877;50.398;30.324;2022-08-11T15:51:49;15.23;;;12.80;;
18168;SDS011;49877;50.398;30.324;2022-08-11T15:54:22;11.90;;;9.53;;
18168;SDS011;49877;50.398;30.324;2022-08-11T15:56:54;12.73;;;9.90;;
18168;SDS011;49877;50.398;30.324;2022-08-11T15:59:25;14.60;;;11.23;;
18168;SDS011;49877;50.398;30.324;2022-08-11T16:02:14;14.03;;;10.03;;
18168;SDS011;49877;50.398;30.324;2022-08-11T16:05:05;12.40;;;11.10;;
18168;SDS011;49877;50.398;30.324;2022-08-11T16:07:34;10.33;;;9.33;;
18168;SDS011;49877;50.398;30.324;2022-08-11T16:10:03;14.57;;;10.57;;
18168;SDS011;49877;50.398;30.324;2022-08-11T16:12:35;14.67;;;9.80;;
18168;SDS011;49877;50.398;30.324;2022-08-11T16:15:06;12.53;;;9.73;;
18168;SDS011;49877;50.398;30.324;2022-08-11T16:17:55;14.13;;;11.45;;
18168;SDS011;49877;50.398;30.324;2022-08-11T16:20:25;14.77;;;10.83;;
18168;SDS011;49877;50.398;30.324;2022-08-11T16:22:55;14.03;;;10.57;;